sensor_id;sensor_type;location;lat;lon;timestamp;P1;durP1;ratioP1;P2;durP2;ratioP2
57303;SDS011;43150;50.986;18.208;2023-12-20T00:00:53;5.70;;;3.40;;
57303;SDS011;43150;50.986;18.208;2023-12-20T00:03:19;5.10;;;3.50;;
57303;SDS011;43150;50.986;18.208;2023-12-20T00:05:45;4.50;;;2.40;;
57303;SDS011;43150;50.986;18.208;2023-12-20T00:08:10;9.90;;;2.90;;
57303;SDS011;43150;50.986;18.208;2023-12-20T00:10:36;5.10;;;2.80;;
57303;SDS011;43150;50.986;18.208;2023-12-20T00:13:02;5.60;;;3.00;;
57303;SDS011;43150;50.986;18.208;2023-12-20T00:15:27;4.50;;;2.10;;
57303;SDS011;43150;50.986;18.208;2023-12-20T00:17:52;2.60;;;1.70;;
57303;SDS011;43150;50.986;18.208;2023-12-20T00:20:18;4.40;;;2.50;;
57303;SDS011;43150;50.986;18.208;2023-12-20T00:22:44;5.60;;;2.70;;
57303;SDS011;43150;50.986;18.208;2023-12-20T00:25:10;4.70;;;2.20;;
57303;SDS011;43150;50.986;18.208;2023-12-20T00:27:36;3.20;;;2.30;;
57303;SDS011;43150;50.986;18.208;2023-12-20T00:30:02;5.30;;;3.10;;
57303;SDS011;43150;50.986;18.208;2023-12-20T00:32:27;4.50;;;2.20;;
57303;SDS011;43150;50.986;18.208;2023-12-20T00:34:52;3.10;;;1.50;;
57303;SDS011;43150;50.986;18.208;2023-12-20T00:37:18;4.90;;;3.00;;
57303;SDS011;43150;50.986;18.208;2023-12-20T00:39:44;3.60;;;2.10;;
57303;SDS011;43150;50.986;18.208;2023-12-20T00:42:09;6.60;;;3.40;;
57303;SDS011;43150;50.986;18.208;2023-12-20T00:44:34;5.10;;;2.90;;
57303;SDS011;43150;50.986;18.208;2023-12-20T00:47:00;5.50;;;3.10;;
57303;SDS011;43150;50.986;18.208;2023-12-20T00:49:26;4.90;;;3.00;;
57303;SDS011;43150;50.986;18.208;2023-12-20T00:51:52;3.50;;;2.60;;
57303;SDS011;43150;50.986;18.208;2023-12-20T00:54:18;5.00;;;3.00;;
57303;SDS011;43150;50.986;18.208;2023-12-20T00:56:43;4.00;;;2.50;;
57303;SDS011;43150;50.986;18.208;2023-12-20T00:59:09;4.60;;;3.00;;
57303;SDS011;43150;50.986;18.208;2023-12-20T01:01:34;5.80;;;2.60;;
57303;SDS011;43150;50.986;18.208;2023-12-20T01:04:00;5.20;;;2.90;;
57303;SDS011;43150;50.986;18.208;2023-12-20T01:06:25;3.90;;;2.80;;
57303;SDS011;43150;50.986;18.208;2023-12-20T01:08:50;4.50;;;3.00;;
57303;SDS011;43150;50.986;18.208;2023-12-20T01:11:16;5.30;;;2.60;;
57303;SDS011;43150;50.986;18.208;2023-12-20T01:13:41;9.20;;;3.20;;
57303;SDS011;43150;50.986;18.208;2023-12-20T01:16:08;6.10;;;3.40;;
57303;SDS011;43150;50.986;18.208;2023-12-20T01:18:34;5.40;;;2.50;;
57303;SDS011;43150;50.986;18.208;2023-12-20T01:21:02;5.30;;;2.60;;
57303;SDS011;43150;50.986;18.208;2023-12-20T01:23:28;5.60;;;3.10;;
57303;SDS011;43150;50.986;18.208;2023-12-20T01:25:54;3.90;;;2.40;;
57303;SDS011;43150;50.986;18.208;2023-12-20T01:28:20;6.60;;;2.50;;
57303;SDS011;43150;50.986;18.208;2023-12-20T01:30:45;3.90;;;2.40;;
57303;SDS011;43150;50.986;18.208;2023-12-20T01:33:11;5.80;;;2.50;;
57303;SDS011;43150;50.986;18.208;2023-12-20T01:35:36;3.30;;;2.10;;
57303;SDS011;43150;50.986;18.208;2023-12-20T01:38:02;6.10;;;3.00;;
57303;SDS011;43150;50.986;18.208;2023-12-20T01:40:28;3.40;;;2.90;;
57303;SDS011;43150;50.986;18.208;2023-12-20T01:43:00;4.80;;;2.50;;
57303;SDS011;43150;50.986;18.208;2023-12-20T01:45:26;3.60;;;2.40;;
57303;SDS011;43150;50.986;18.208;2023-12-20T01:47:52;4.50;;;2.60;;
57303;SDS011;43150;50.986;18.208;2023-12-20T01:50:18;3.00;;;2.20;;
57303;SDS011;43150;50.986;18.208;2023-12-20T01:52:44;3.50;;;2.50;;
57303;SDS011;43150;50.986;18.208;2023-12-20T01:55:09;5.00;;;2.30;;
57303;SDS011;43150;50.986;18.208;2023-12-20T01:57:43;4.10;;;2.20;;
57303;SDS011;43150;50.986;18.208;2023-12-20T02:00:10;3.30;;;2.00;;
57303;SDS011;43150;50.986;18.208;2023-12-20T02:02:36;2.90;;;2.00;;
57303;SDS011;43150;50.986;18.208;2023-12-20T02:05:03;4.40;;;2.60;;
57303;SDS011;43150;50.986;18.208;2023-12-20T02:07:29;4.60;;;2.30;;
57303;SDS011;43150;50.986;18.208;2023-12-20T02:09:56;5.20;;;2.40;;
57303;SDS011;43150;50.986;18.208;2023-12-20T02:12:21;2.70;;;2.10;;
57303;SDS011;43150;50.986;18.208;2023-12-20T02:14:47;4.90;;;2.80;;
57303;SDS011;43150;50.986;18.208;2023-12-20T02:17:13;5.20;;;2.70;;
57303;SDS011;43150;50.986;18.208;2023-12-20T02:19:38;2.00;;;1.70;;
57303;SDS011;43150;50.986;18.208;2023-12-20T02:22:11;4.40;;;2.30;;
57303;SDS011;43150;50.986;18.208;2023-12-20T02:24:37;3.70;;;2.00;;
57303;SDS011;43150;50.986;18.208;2023-12-20T02:27:03;6.10;;;3.40;;
57303;SDS011;43150;50.986;18.208;2023-12-20T02:29:30;4.70;;;2.30;;
57303;SDS011;43150;50.986;18.208;2023-12-20T02:31:56;5.60;;;3.40;;
57303;SDS011;43150;50.986;18.208;2023-12-20T02:34:21;5.80;;;2.70;;
57303;SDS011;43150;50.986;18.208;2023-12-20T02:36:47;5.10;;;2.90;;
57303;SDS011;43150;50.986;18.208;2023-12-20T02:39:12;3.60;;;2.80;;
57303;SDS011;43150;50.986;18.208;2023-12-20T02:41:38;5.00;;;2.90;;
57303;SDS011;43150;50.986;18.208;2023-12-20T02:44:04;6.90;;;3.30;;
57303;SDS011;43150;50.986;18.208;2023-12-20T02:46:30;7.10;;;3.40;;
57303;SDS011;43150;50.986;18.208;2023-12-20T02:48:55;2.50;;;2.00;;
57303;SDS011;43150;50.986;18.208;2023-12-20T02:51:21;3.80;;;2.60;;
57303;SDS011;43150;50.986;18.208;2023-12-20T02:53:46;4.50;;;3.10;;
57303;SDS011;43150;50.986;18.208;2023-12-20T02:56:12;5.70;;;3.50;;
57303;SDS011;43150;50.986;18.208;2023-12-20T02:58:39;2.80;;;2.10;;
57303;SDS011;43150;50.986;18.208;2023-12-20T03:01:04;5.20;;;3.10;;
57303;SDS011;43150;50.986;18.208;2023-12-20T03:03:29;5.50;;;3.40;;
57303;SDS011;43150;50.986;18.208;2023-12-20T03:05:55;5.10;;;3.30;;
57303;SDS011;43150;50.986;18.208;2023-12-20T03:08:20;4.40;;;2.90;;
57303;SDS011;43150;50.986;18.208;2023-12-20T03:10:46;4.30;;;3.50;;
57303;SDS011;43150;50.986;18.208;2023-12-20T03:13:11;6.20;;;3.90;;
57303;SDS011;43150;50.986;18.208;2023-12-20T03:15:37;3.00;;;2.50;;
57303;SDS011;43150;50.986;18.208;2023-12-20T03:18:03;5.70;;;3.10;;
57303;SDS011;43150;50.986;18.208;2023-12-20T03:20:28;7.00;;;3.70;;
57303;SDS011;43150;50.986;18.208;2023-12-20T03:22:56;3.50;;;2.80;;
57303;SDS011;43150;50.986;18.208;2023-12-20T03:25:21;5.30;;;3.40;;
57303;SDS011;43150;50.986;18.208;2023-12-20T03:27:47;4.30;;;2.70;;
57303;SDS011;43150;50.986;18.208;2023-12-20T03:30:12;3.10;;;2.40;;
57303;SDS011;43150;50.986;18.208;2023-12-20T03:32:38;6.70;;;4.10;;
57303;SDS011;43150;50.986;18.208;2023-12-20T03:35:04;6.10;;;3.70;;
57303;SDS011;43150;50.986;18.208;2023-12-20T03:37:31;5.90;;;3.40;;
57303;SDS011;43150;50.986;18.208;2023-12-20T03:39:56;4.30;;;2.80;;
57303;SDS011;43150;50.986;18.208;2023-12-20T03:42:22;7.30;;;3.80;;
57303;SDS011;43150;50.986;18.208;2023-12-20T03:44:47;7.20;;;3.80;;
57303;SDS011;43150;50.986;18.208;2023-12-20T03:47:13;8.10;;;4.60;;
57303;SDS011;43150;50.986;18.208;2023-12-20T03:49:38;7.80;;;5.50;;
57303;SDS011;43150;50.986;18.208;2023-12-20T03:52:04;5.00;;;3.70;;
57303;SDS011;43150;50.986;18.208;2023-12-20T03:54:30;6.90;;;4.60;;
57303;SDS011;43150;50.986;18.208;2023-12-20T03:56:56;5.50;;;3.40;;
57303;SDS011;43150;50.986;18.208;2023-12-20T03:59:22;5.40;;;3.70;;
57303;SDS011;43150;50.986;18.208;2023-12-20T04:01:47;6.70;;;4.70;;
57303;SDS011;43150;50.986;18.208;2023-12-20T04:04:13;6.30;;;4.40;;
57303;SDS011;43150;50.986;18.208;2023-12-20T04:06:39;8.80;;;5.00;;
57303;SDS011;43150;50.986;18.208;2023-12-20T04:09:04;8.50;;;5.30;;
57303;SDS011;43150;50.986;18.208;2023-12-20T04:11:29;8.80;;;5.90;;
57303;SDS011;43150;50.986;18.208;2023-12-20T04:13:55;11.00;;;7.00;;
57303;SDS011;43150;50.986;18.208;2023-12-20T04:16:21;7.50;;;5.50;;
57303;SDS011;43150;50.986;18.208;2023-12-20T04:18:46;12.70;;;8.80;;
57303;SDS011;43150;50.986;18.208;2023-12-20T04:21:12;13.40;;;7.20;;
57303;SDS011;43150;50.986;18.208;2023-12-20T04:23:37;7.80;;;4.40;;
57303;SDS011;43150;50.986;18.208;2023-12-20T04:26:02;5.90;;;4.00;;
57303;SDS011;43150;50.986;18.208;2023-12-20T04:28:30;8.80;;;4.70;;
57303;SDS011;43150;50.986;18.208;2023-12-20T04:30:56;7.20;;;5.30;;
57303;SDS011;43150;50.986;18.208;2023-12-20T04:33:21;7.00;;;5.10;;
57303;SDS011;43150;50.986;18.208;2023-12-20T04:35:48;7.90;;;4.80;;
57303;SDS011;43150;50.986;18.208;2023-12-20T04:38:14;8.50;;;5.40;;
57303;SDS011;43150;50.986;18.208;2023-12-20T04:40:39;5.50;;;3.80;;
57303;SDS011;43150;50.986;18.208;2023-12-20T04:43:06;7.10;;;4.20;;
57303;SDS011;43150;50.986;18.208;2023-12-20T04:45:32;6.20;;;3.60;;
57303;SDS011;43150;50.986;18.208;2023-12-20T04:47:57;5.60;;;3.50;;
57303;SDS011;43150;50.986;18.208;2023-12-20T04:50:23;5.50;;;3.30;;
57303;SDS011;43150;50.986;18.208;2023-12-20T04:52:48;5.00;;;3.20;;
57303;SDS011;43150;50.986;18.208;2023-12-20T04:55:14;5.90;;;3.70;;
57303;SDS011;43150;50.986;18.208;2023-12-20T04:57:40;3.40;;;2.80;;
57303;SDS011;43150;50.986;18.208;2023-12-20T05:00:06;4.40;;;2.70;;
57303;SDS011;43150;50.986;18.208;2023-12-20T05:02:33;3.10;;;2.30;;
57303;SDS011;43150;50.986;18.208;2023-12-20T05:04:59;4.80;;;3.50;;
57303;SDS011;43150;50.986;18.208;2023-12-20T05:07:25;3.50;;;2.50;;
57303;SDS011;43150;50.986;18.208;2023-12-20T05:09:50;5.80;;;4.70;;
57303;SDS011;43150;50.986;18.208;2023-12-20T05:12:16;4.00;;;3.40;;
57303;SDS011;43150;50.986;18.208;2023-12-20T05:14:42;4.90;;;3.20;;
57303;SDS011;43150;50.986;18.208;2023-12-20T05:17:08;4.40;;;3.20;;
57303;SDS011;43150;50.986;18.208;2023-12-20T05:19:33;6.00;;;2.90;;
57303;SDS011;43150;50.986;18.208;2023-12-20T05:22:01;4.70;;;3.00;;
57303;SDS011;43150;50.986;18.208;2023-12-20T05:24:27;3.60;;;2.40;;
57303;SDS011;43150;50.986;18.208;2023-12-20T05:26:53;2.90;;;2.30;;
57303;SDS011;43150;50.986;18.208;2023-12-20T05:29:18;7.60;;;2.80;;
57303;SDS011;43150;50.986;18.208;2023-12-20T05:31:43;2.00;;;1.50;;
57303;SDS011;43150;50.986;18.208;2023-12-20T05:34:09;4.30;;;2.50;;
57303;SDS011;43150;50.986;18.208;2023-12-20T05:36:34;3.80;;;2.10;;
57303;SDS011;43150;50.986;18.208;2023-12-20T05:39:00;2.90;;;1.90;;
57303;SDS011;43150;50.986;18.208;2023-12-20T05:41:25;3.80;;;1.50;;
57303;SDS011;43150;50.986;18.208;2023-12-20T05:43:51;1.80;;;1.10;;
57303;SDS011;43150;50.986;18.208;2023-12-20T05:46:16;1.30;;;1.20;;
57303;SDS011;43150;50.986;18.208;2023-12-20T05:48:42;1.80;;;1.10;;
57303;SDS011;43150;50.986;18.208;2023-12-20T05:51:07;1.00;;;0.80;;
57303;SDS011;43150;50.986;18.208;2023-12-20T05:53:33;1.50;;;0.90;;
57303;SDS011;43150;50.986;18.208;2023-12-20T05:55:58;1.90;;;1.10;;
57303;SDS011;43150;50.986;18.208;2023-12-20T05:58:25;1.60;;;1.00;;
57303;SDS011;43150;50.986;18.208;2023-12-20T06:00:51;1.10;;;1.00;;
57303;SDS011;43150;50.986;18.208;2023-12-20T06:03:16;1.20;;;0.80;;
57303;SDS011;43150;50.986;18.208;2023-12-20T06:05:41;2.20;;;1.10;;
57303;SDS011;43150;50.986;18.208;2023-12-20T06:08:07;1.10;;;0.80;;
57303;SDS011;43150;50.986;18.208;2023-12-20T06:10:33;1.30;;;1.00;;
57303;SDS011;43150;50.986;18.208;2023-12-20T06:12:59;1.00;;;0.90;;
57303;SDS011;43150;50.986;18.208;2023-12-20T06:15:26;1.00;;;0.90;;
57303;SDS011;43150;50.986;18.208;2023-12-20T06:17:51;4.20;;;2.10;;
57303;SDS011;43150;50.986;18.208;2023-12-20T06:20:21;2.40;;;1.90;;
57303;SDS011;43150;50.986;18.208;2023-12-20T06:22:47;1.40;;;1.00;;
57303;SDS011;43150;50.986;18.208;2023-12-20T06:25:13;1.00;;;0.90;;
57303;SDS011;43150;50.986;18.208;2023-12-20T06:27:38;1.60;;;1.30;;
57303;SDS011;43150;50.986;18.208;2023-12-20T06:30:06;2.40;;;1.70;;
57303;SDS011;43150;50.986;18.208;2023-12-20T06:32:32;0.90;;;0.90;;
57303;SDS011;43150;50.986;18.208;2023-12-20T06:34:57;1.90;;;1.60;;
57303;SDS011;43150;50.986;18.208;2023-12-20T06:37:23;1.90;;;1.10;;
57303;SDS011;43150;50.986;18.208;2023-12-20T06:39:49;1.10;;;0.80;;
57303;SDS011;43150;50.986;18.208;2023-12-20T06:42:15;0.30;;;0.30;;
57303;SDS011;43150;50.986;18.208;2023-12-20T06:44:40;0.40;;;0.40;;
57303;SDS011;43150;50.986;18.208;2023-12-20T06:47:05;0.40;;;0.40;;
57303;SDS011;43150;50.986;18.208;2023-12-20T06:49:31;0.50;;;0.30;;
57303;SDS011;43150;50.986;18.208;2023-12-20T06:52:00;1.90;;;1.30;;
57303;SDS011;43150;50.986;18.208;2023-12-20T06:54:26;1.10;;;0.80;;
57303;SDS011;43150;50.986;18.208;2023-12-20T06:56:51;1.40;;;1.20;;
57303;SDS011;43150;50.986;18.208;2023-12-20T06:59:17;0.80;;;0.50;;
57303;SDS011;43150;50.986;18.208;2023-12-20T07:01:42;0.60;;;0.60;;
57303;SDS011;43150;50.986;18.208;2023-12-20T07:04:12;0.40;;;0.40;;
57303;SDS011;43150;50.986;18.208;2023-12-20T07:06:40;0.50;;;0.50;;
57303;SDS011;43150;50.986;18.208;2023-12-20T07:09:06;0.90;;;0.50;;
57303;SDS011;43150;50.986;18.208;2023-12-20T07:11:40;1.50;;;0.80;;
57303;SDS011;43150;50.986;18.208;2023-12-20T07:14:05;0.80;;;0.50;;
57303;SDS011;43150;50.986;18.208;2023-12-20T07:16:31;2.10;;;1.00;;
57303;SDS011;43150;50.986;18.208;2023-12-20T07:18:57;1.20;;;0.80;;
57303;SDS011;43150;50.986;18.208;2023-12-20T07:21:22;1.70;;;0.90;;
57303;SDS011;43150;50.986;18.208;2023-12-20T07:23:48;2.40;;;1.40;;
57303;SDS011;43150;50.986;18.208;2023-12-20T07:26:14;1.50;;;1.00;;
57303;SDS011;43150;50.986;18.208;2023-12-20T07:28:40;0.90;;;0.60;;
57303;SDS011;43150;50.986;18.208;2023-12-20T07:31:06;0.80;;;0.60;;
57303;SDS011;43150;50.986;18.208;2023-12-20T07:33:31;0.80;;;0.80;;
57303;SDS011;43150;50.986;18.208;2023-12-20T07:35:57;0.60;;;0.40;;
57303;SDS011;43150;50.986;18.208;2023-12-20T07:38:22;2.00;;;1.00;;
57303;SDS011;43150;50.986;18.208;2023-12-20T07:40:48;1.30;;;0.90;;
57303;SDS011;43150;50.986;18.208;2023-12-20T07:43:14;1.40;;;1.00;;
57303;SDS011;43150;50.986;18.208;2023-12-20T07:45:40;0.60;;;0.40;;
57303;SDS011;43150;50.986;18.208;2023-12-20T07:48:06;6.90;;;4.30;;
57303;SDS011;43150;50.986;18.208;2023-12-20T07:50:32;11.90;;;5.70;;
57303;SDS011;43150;50.986;18.208;2023-12-20T07:52:58;20.10;;;10.70;;
57303;SDS011;43150;50.986;18.208;2023-12-20T07:55:26;3.90;;;2.20;;
57303;SDS011;43150;50.986;18.208;2023-12-20T07:57:51;7.10;;;4.00;;
57303;SDS011;43150;50.986;18.208;2023-12-20T08:00:17;3.70;;;2.10;;
57303;SDS011;43150;50.986;18.208;2023-12-20T08:02:43;5.20;;;2.90;;
57303;SDS011;43150;50.986;18.208;2023-12-20T08:05:08;4.90;;;2.50;;
57303;SDS011;43150;50.986;18.208;2023-12-20T08:07:34;2.90;;;1.70;;
57303;SDS011;43150;50.986;18.208;2023-12-20T08:10:00;0.60;;;0.60;;
57303;SDS011;43150;50.986;18.208;2023-12-20T08:12:25;3.10;;;1.90;;
57303;SDS011;43150;50.986;18.208;2023-12-20T08:14:53;2.50;;;1.50;;
57303;SDS011;43150;50.986;18.208;2023-12-20T08:17:20;10.80;;;7.20;;
57303;SDS011;43150;50.986;18.208;2023-12-20T08:19:46;2.70;;;1.90;;
57303;SDS011;43150;50.986;18.208;2023-12-20T08:22:12;3.20;;;1.80;;
57303;SDS011;43150;50.986;18.208;2023-12-20T08:24:37;2.60;;;2.30;;
57303;SDS011;43150;50.986;18.208;2023-12-20T08:27:03;3.70;;;2.40;;
57303;SDS011;43150;50.986;18.208;2023-12-20T08:29:29;4.00;;;2.60;;
57303;SDS011;43150;50.986;18.208;2023-12-20T08:31:56;5.50;;;4.10;;
57303;SDS011;43150;50.986;18.208;2023-12-20T08:34:22;3.90;;;3.50;;
57303;SDS011;43150;50.986;18.208;2023-12-20T08:36:49;3.40;;;1.90;;
57303;SDS011;43150;50.986;18.208;2023-12-20T08:39:16;2.60;;;1.90;;
57303;SDS011;43150;50.986;18.208;2023-12-20T08:41:43;6.20;;;4.20;;
57303;SDS011;43150;50.986;18.208;2023-12-20T08:44:08;4.40;;;2.90;;
57303;SDS011;43150;50.986;18.208;2023-12-20T08:46:35;2.90;;;2.30;;
57303;SDS011;43150;50.986;18.208;2023-12-20T08:49:01;6.60;;;4.30;;
57303;SDS011;43150;50.986;18.208;2023-12-20T08:51:27;8.90;;;3.80;;
57303;SDS011;43150;50.986;18.208;2023-12-20T08:53:53;4.00;;;1.60;;
57303;SDS011;43150;50.986;18.208;2023-12-20T08:56:19;3.50;;;2.30;;
57303;SDS011;43150;50.986;18.208;2023-12-20T08:58:45;3.90;;;1.90;;
57303;SDS011;43150;50.986;18.208;2023-12-20T09:01:11;3.30;;;2.20;;
57303;SDS011;43150;50.986;18.208;2023-12-20T09:03:36;4.00;;;1.90;;
57303;SDS011;43150;50.986;18.208;2023-12-20T09:06:02;5.90;;;3.10;;
57303;SDS011;43150;50.986;18.208;2023-12-20T09:08:27;4.20;;;2.70;;
57303;SDS011;43150;50.986;18.208;2023-12-20T09:10:53;5.80;;;3.70;;
57303;SDS011;43150;50.986;18.208;2023-12-20T09:13:18;5.20;;;3.70;;
57303;SDS011;43150;50.986;18.208;2023-12-20T09:15:44;8.70;;;5.90;;
57303;SDS011;43150;50.986;18.208;2023-12-20T09:18:10;6.40;;;4.10;;
57303;SDS011;43150;50.986;18.208;2023-12-20T09:20:36;3.90;;;2.40;;
57303;SDS011;43150;50.986;18.208;2023-12-20T09:23:04;14.40;;;8.40;;
57303;SDS011;43150;50.986;18.208;2023-12-20T09:25:30;15.50;;;9.00;;
57303;SDS011;43150;50.986;18.208;2023-12-20T09:27:55;6.20;;;3.40;;
57303;SDS011;43150;50.986;18.208;2023-12-20T09:30:21;3.30;;;2.40;;
57303;SDS011;43150;50.986;18.208;2023-12-20T09:32:46;4.20;;;2.00;;
57303;SDS011;43150;50.986;18.208;2023-12-20T09:35:11;2.70;;;1.70;;
57303;SDS011;43150;50.986;18.208;2023-12-20T09:37:37;3.70;;;2.00;;
57303;SDS011;43150;50.986;18.208;2023-12-20T09:40:03;4.20;;;1.60;;
57303;SDS011;43150;50.986;18.208;2023-12-20T09:45:15;3.70;;;1.20;;
57303;SDS011;43150;50.986;18.208;2023-12-20T09:47:42;3.20;;;2.20;;
57303;SDS011;43150;50.986;18.208;2023-12-20T09:50:08;3.50;;;1.50;;
57303;SDS011;43150;50.986;18.208;2023-12-20T09:52:34;3.40;;;1.90;;
57303;SDS011;43150;50.986;18.208;2023-12-20T09:55:01;1.90;;;1.10;;
57303;SDS011;43150;50.986;18.208;2023-12-20T09:57:31;1.70;;;1.00;;
57303;SDS011;43150;50.986;18.208;2023-12-20T09:59:57;2.60;;;1.50;;
57303;SDS011;43150;50.986;18.208;2023-12-20T10:02:23;5.90;;;3.30;;
57303;SDS011;43150;50.986;18.208;2023-12-20T10:04:49;4.30;;;2.30;;
57303;SDS011;43150;50.986;18.208;2023-12-20T10:07:16;4.30;;;2.00;;
57303;SDS011;43150;50.986;18.208;2023-12-20T10:09:42;1.10;;;1.00;;
57303;SDS011;43150;50.986;18.208;2023-12-20T10:12:08;3.60;;;1.70;;
57303;SDS011;43150;50.986;18.208;2023-12-20T10:14:34;3.80;;;2.30;;
57303;SDS011;43150;50.986;18.208;2023-12-20T10:17:03;2.80;;;1.40;;
57303;SDS011;43150;50.986;18.208;2023-12-20T10:19:29;2.30;;;1.10;;
57303;SDS011;43150;50.986;18.208;2023-12-20T10:21:57;1.00;;;0.60;;
57303;SDS011;43150;50.986;18.208;2023-12-20T10:24:23;0.50;;;0.50;;
57303;SDS011;43150;50.986;18.208;2023-12-20T10:26:53;1.10;;;0.70;;
57303;SDS011;43150;50.986;18.208;2023-12-20T10:29:26;0.60;;;0.50;;
57303;SDS011;43150;50.986;18.208;2023-12-20T10:31:51;1.60;;;0.80;;
57303;SDS011;43150;50.986;18.208;2023-12-20T10:34:22;1.60;;;0.90;;
57303;SDS011;43150;50.986;18.208;2023-12-20T10:36:48;0.90;;;0.50;;
57303;SDS011;43150;50.986;18.208;2023-12-20T10:39:14;0.90;;;0.70;;
57303;SDS011;43150;50.986;18.208;2023-12-20T10:41:40;0.60;;;0.50;;
57303;SDS011;43150;50.986;18.208;2023-12-20T10:44:06;1.00;;;0.80;;
57303;SDS011;43150;50.986;18.208;2023-12-20T10:46:33;2.00;;;1.20;;
57303;SDS011;43150;50.986;18.208;2023-12-20T10:49:01;0.50;;;0.50;;
57303;SDS011;43150;50.986;18.208;2023-12-20T10:51:28;1.20;;;0.70;;
57303;SDS011;43150;50.986;18.208;2023-12-20T10:53:55;1.80;;;1.20;;
57303;SDS011;43150;50.986;18.208;2023-12-20T10:56:21;1.60;;;1.40;;
57303;SDS011;43150;50.986;18.208;2023-12-20T10:58:48;1.50;;;1.00;;
57303;SDS011;43150;50.986;18.208;2023-12-20T11:01:15;1.60;;;1.10;;
57303;SDS011;43150;50.986;18.208;2023-12-20T11:03:43;1.70;;;1.60;;
57303;SDS011;43150;50.986;18.208;2023-12-20T11:06:09;2.20;;;1.30;;
57303;SDS011;43150;50.986;18.208;2023-12-20T11:08:39;1.40;;;0.90;;
57303;SDS011;43150;50.986;18.208;2023-12-20T11:11:27;2.50;;;1.40;;
57303;SDS011;43150;50.986;18.208;2023-12-20T11:13:57;1.50;;;1.20;;
57303;SDS011;43150;50.986;18.208;2023-12-20T11:16:23;1.90;;;1.10;;
57303;SDS011;43150;50.986;18.208;2023-12-20T11:18:51;1.40;;;0.80;;
57303;SDS011;43150;50.986;18.208;2023-12-20T11:21:16;1.70;;;1.10;;
57303;SDS011;43150;50.986;18.208;2023-12-20T11:23:42;5.30;;;2.00;;
57303;SDS011;43150;50.986;18.208;2023-12-20T11:26:08;4.30;;;2.10;;
57303;SDS011;43150;50.986;18.208;2023-12-20T11:28:33;3.80;;;2.40;;
57303;SDS011;43150;50.986;18.208;2023-12-20T11:31:00;14.10;;;7.00;;
57303;SDS011;43150;50.986;18.208;2023-12-20T11:33:26;3.80;;;2.40;;
57303;SDS011;43150;50.986;18.208;2023-12-20T11:35:58;1.10;;;1.00;;
57303;SDS011;43150;50.986;18.208;2023-12-20T11:38:25;2.70;;;1.60;;
57303;SDS011;43150;50.986;18.208;2023-12-20T11:40:51;1.40;;;0.80;;
57303;SDS011;43150;50.986;18.208;2023-12-20T11:43:32;3.20;;;1.50;;
57303;SDS011;43150;50.986;18.208;2023-12-20T11:46:03;8.20;;;4.40;;
57303;SDS011;43150;50.986;18.208;2023-12-20T11:48:30;1.30;;;0.60;;
57303;SDS011;43150;50.986;18.208;2023-12-20T11:50:56;1.80;;;1.20;;
57303;SDS011;43150;50.986;18.208;2023-12-20T11:53:23;1.80;;;0.80;;
57303;SDS011;43150;50.986;18.208;2023-12-20T11:55:49;1.20;;;0.90;;
57303;SDS011;43150;50.986;18.208;2023-12-20T11:58:14;1.70;;;1.20;;
57303;SDS011;43150;50.986;18.208;2023-12-20T12:00:42;1.10;;;0.90;;
57303;SDS011;43150;50.986;18.208;2023-12-20T12:03:08;1.20;;;0.90;;
57303;SDS011;43150;50.986;18.208;2023-12-20T12:05:35;2.20;;;1.70;;
57303;SDS011;43150;50.986;18.208;2023-12-20T12:08:01;1.40;;;0.90;;
57303;SDS011;43150;50.986;18.208;2023-12-20T12:10:28;4.30;;;1.30;;
57303;SDS011;43150;50.986;18.208;2023-12-20T12:12:53;1.70;;;1.20;;
57303;SDS011;43150;50.986;18.208;2023-12-20T12:15:19;2.50;;;1.50;;
57303;SDS011;43150;50.986;18.208;2023-12-20T12:17:52;2.00;;;1.20;;
57303;SDS011;43150;50.986;18.208;2023-12-20T12:20:19;2.60;;;1.40;;
57303;SDS011;43150;50.986;18.208;2023-12-20T12:22:45;2.30;;;1.30;;
57303;SDS011;43150;50.986;18.208;2023-12-20T12:25:12;3.00;;;1.50;;
57303;SDS011;43150;50.986;18.208;2023-12-20T12:27:41;4.20;;;2.20;;
57303;SDS011;43150;50.986;18.208;2023-12-20T12:30:08;2.80;;;1.60;;
57303;SDS011;43150;50.986;18.208;2023-12-20T12:32:35;3.50;;;1.90;;
57303;SDS011;43150;50.986;18.208;2023-12-20T12:35:02;6.70;;;1.90;;
57303;SDS011;43150;50.986;18.208;2023-12-20T12:37:28;3.50;;;1.60;;
57303;SDS011;43150;50.986;18.208;2023-12-20T12:39:54;5.60;;;3.10;;
57303;SDS011;43150;50.986;18.208;2023-12-20T12:42:20;3.90;;;2.60;;
57303;SDS011;43150;50.986;18.208;2023-12-20T12:44:47;3.80;;;2.10;;
57303;SDS011;43150;50.986;18.208;2023-12-20T12:47:12;1.90;;;1.10;;
57303;SDS011;43150;50.986;18.208;2023-12-20T12:49:40;6.60;;;1.10;;
57303;SDS011;43150;50.986;18.208;2023-12-20T12:52:05;14.50;;;1.90;;
57303;SDS011;43150;50.986;18.208;2023-12-20T12:54:31;2.50;;;2.10;;
57303;SDS011;43150;50.986;18.208;2023-12-20T12:56:56;2.30;;;1.50;;
57303;SDS011;43150;50.986;18.208;2023-12-20T12:59:23;3.40;;;2.00;;
57303;SDS011;43150;50.986;18.208;2023-12-20T13:01:48;4.70;;;1.60;;
57303;SDS011;43150;50.986;18.208;2023-12-20T13:04:14;2.90;;;1.30;;
57303;SDS011;43150;50.986;18.208;2023-12-20T13:06:40;4.10;;;1.20;;
57303;SDS011;43150;50.986;18.208;2023-12-20T13:09:07;4.00;;;1.00;;
57303;SDS011;43150;50.986;18.208;2023-12-20T13:11:34;2.90;;;0.60;;
57303;SDS011;43150;50.986;18.208;2023-12-20T13:14:00;1.10;;;0.80;;
57303;SDS011;43150;50.986;18.208;2023-12-20T13:16:25;2.20;;;1.10;;
57303;SDS011;43150;50.986;18.208;2023-12-20T13:18:51;2.70;;;1.20;;
57303;SDS011;43150;50.986;18.208;2023-12-20T13:21:16;3.40;;;1.10;;
57303;SDS011;43150;50.986;18.208;2023-12-20T13:23:42;3.10;;;0.90;;
57303;SDS011;43150;50.986;18.208;2023-12-20T13:26:07;2.00;;;0.90;;
57303;SDS011;43150;50.986;18.208;2023-12-20T13:28:33;3.20;;;1.00;;
57303;SDS011;43150;50.986;18.208;2023-12-20T13:30:58;2.10;;;0.90;;
57303;SDS011;43150;50.986;18.208;2023-12-20T13:33:23;1.50;;;0.80;;
57303;SDS011;43150;50.986;18.208;2023-12-20T13:35:49;2.80;;;1.20;;
57303;SDS011;43150;50.986;18.208;2023-12-20T13:38:14;2.30;;;0.80;;
57303;SDS011;43150;50.986;18.208;2023-12-20T13:40:40;2.40;;;1.20;;
57303;SDS011;43150;50.986;18.208;2023-12-20T13:43:05;2.90;;;1.40;;
57303;SDS011;43150;50.986;18.208;2023-12-20T13:45:31;3.50;;;1.40;;
57303;SDS011;43150;50.986;18.208;2023-12-20T13:47:56;3.70;;;1.40;;
57303;SDS011;43150;50.986;18.208;2023-12-20T13:50:22;2.70;;;1.30;;
57303;SDS011;43150;50.986;18.208;2023-12-20T13:52:47;3.50;;;1.40;;
57303;SDS011;43150;50.986;18.208;2023-12-20T13:55:13;1.90;;;1.00;;
57303;SDS011;43150;50.986;18.208;2023-12-20T13:57:39;2.50;;;1.20;;
57303;SDS011;43150;50.986;18.208;2023-12-20T14:00:06;4.20;;;1.70;;
57303;SDS011;43150;50.986;18.208;2023-12-20T14:02:38;5.30;;;2.30;;
57303;SDS011;43150;50.986;18.208;2023-12-20T14:05:04;5.60;;;1.50;;
57303;SDS011;43150;50.986;18.208;2023-12-20T14:07:29;5.20;;;1.70;;
57303;SDS011;43150;50.986;18.208;2023-12-20T14:09:55;1.50;;;0.80;;
57303;SDS011;43150;50.986;18.208;2023-12-20T14:12:20;3.30;;;1.50;;
57303;SDS011;43150;50.986;18.208;2023-12-20T14:14:46;2.60;;;0.90;;
57303;SDS011;43150;50.986;18.208;2023-12-20T14:17:12;3.70;;;1.00;;
57303;SDS011;43150;50.986;18.208;2023-12-20T14:19:37;3.40;;;1.30;;
57303;SDS011;43150;50.986;18.208;2023-12-20T14:22:03;3.60;;;1.80;;
57303;SDS011;43150;50.986;18.208;2023-12-20T14:24:29;1.60;;;0.90;;
57303;SDS011;43150;50.986;18.208;2023-12-20T14:26:55;2.50;;;1.40;;
57303;SDS011;43150;50.986;18.208;2023-12-20T14:29:21;3.80;;;1.70;;